Archival Weather

Tokyo Intl

Tokyo, Japan (RJTT)

Report from: Friday, September 22, 2023 12:00 PM JST
Current time: Sunday, February 25, 2024 2:04 AM JST

Current weather – Weather history – Daily summaries
Weather forecast

Temperature29.0°C (84.2°F)
Heat index32.9°C (91.2°F)
Dew point23.0°C (73.4°F)
Winds 4 kts (2.1 m/s, 4.6 mph) Vrb
Winds variableWinds variable from Northwest (320°) to North-Northeast (30°)
Visibility6.2 mi. (10 km)
Clouds Few clouds 2,000 ft. (610 m)
Scattered clouds 2,500 ft. (762 m)
Ceiling: Broken clouds 14,000 ft. (4,267 m)
Altimeter29.80 in.Hg (1009 mB)
Relative humidity70 %
Density altitude2,128 ft. (649 m)
Remarks No significant changes expected in the next two hours
Flight conditions Visual Meteorological Conditions
Raw dataRJTT 220300Z 35004KT 320V030 9999 FEW020 SCT025 BKN140 29/23 Q1009 NOSIG
An error has occurred. This application may no longer respond until reloaded. Reload 🗙